Fillmore, UT

8:15 PM MST on December 26, 2014 (GMT -0700)
Milford Municipal | Change Station
CLOSE
Current Station
Airport
Location: Milford,
Elevation: 5039 ft
Nearby Weather Stations

Elev 5039 ft 38.43 °N, 113.01 °W | Updated 23 minutes ago

Overcast
Overcast
22 °F
Feels Like 12 °F
N
8
Wind Variable Wind from NW

Today
High -- | Low -- °F
--% Chance of Precip.
Yesterday
High -- | Low -- °F
Precip. -- in
7:47 AM 5:14 PM
Waxing Crescent, 32% visible
Pressure 30.26 in
Visibility 10.0 miles
Clouds Overcast 7000 ft
Windchill 12 °F
Dew Point 15 °F
Humidity 75%
Rainfall 0.12 in
Snow Depth Not available.
UV 0 out of 12
Pollen .10 out of 12
Air Quality Not available.
Flu Activity Not available.
METAR KMLF 270252Z AUTO 32007KT 10SM OVC070 M06/M09 A3015 RMK AO2 SLP245 60000 T10561094 51020 TSNO $

More Conditions Fewer Conditions

Pressure 30.26 in
Visibility 10.0 miles
Clouds Overcast 7000 ft
Windchill 12 °F
Dew Point 15 °F
Humidity 75%
Rainfall 0.12 in
Snow Depth Not available.
UV 0 out of 12
Pollen .10 out of 12
Air Quality Not available.
Flu Activity Not available.
METAR KMLF 270252Z AUTO 32007KT 10SM OVC070 M06/M09 A3015 RMK AO2 SLP245 60000 T10561094 51020 TSNO $

More Conditions Fewer Conditions

10-Day Weather Forecast

Almanac

Astronomy

Dec. 26, 2014 Rise Set
Actual Time
Civil Twilight
Nautical Twilight
Astronomical Twilight
Moon
Length of Visible Light
Length of Day
Tomorrow will be .
, % of the Moon is Illuminated

Today's Extremes

State Highs State Lows

Community

WunderPhotos

Upload Photos

1,780,830 photos uploaded!

WunderBlogs® & News

Nearby

Air Quality

  Air Quality AQ Index Pollutant
Not available.

Snow Depth

Station Depth Elevation

Earthquake Activity

City Distance Mag. Time & Date
Minimum magnitude displayed is 2.5.

Coastal Water Temperatures

Place Temperature

Nearby Weather Stations